Time;durP1;ratioP1;P1;durP2;ratioP2;P2;SDS_P1;SDS_P2;PMS_P1;PMS_P2;Temp;Humidity;BMP_temperature;BMP_pressure;BME280_temperature;BME280_humidity;BME280_pressure;Samples;Min_cycle;Max_cycle;Signal;HPM_P1;HPM_P2
2022/10/13 00:00:07;;;;;;;4.57;4.18;;;15.40;99.90;;;;;;4972967;28;20734;-74
2022/10/13 00:02:34;;;;;;;4.80;4.30;;;15.40;99.90;;;;;;4954768;28;20209;-73
2022/10/13 00:05:01;;;;;;;5.05;4.22;;;15.40;99.90;;;;;;4953867;28;20226;-73
2022/10/13 00:07:29;;;;;;;5.28;4.20;;;15.50;99.90;;;;;;4959872;28;20206;-73
2022/10/13 00:09:56;;;;;;;4.43;4.03;;;15.50;99.90;;;;;;4970831;28;20607;-73
2022/10/13 00:12:25;;;;;;;4.30;3.83;;;15.50;99.90;;;;;;4954938;28;20205;-73
2022/10/13 00:14:52;;;;;;;6.57;4.40;;;15.50;99.90;;;;;;4972227;28;20221;-73
2022/10/13 00:17:20;;;;;;;4.93;4.43;;;15.50;99.90;;;;;;4975335;28;20208;-73
2022/10/13 00:19:47;;;;;;;4.22;3.83;;;15.50;99.90;;;;;;4973091;28;20276;-73
2022/10/13 00:22:14;;;;;;;5.30;3.60;;;15.50;99.90;;;;;;4973814;28;20214;-73
2022/10/13 00:24:42;;;;;;;4.10;3.80;;;15.50;99.90;;;;;;4951810;28;20240;-73
2022/10/13 00:27:09;;;;;;;6.40;4.78;;;15.50;99.90;;;;;;4960437;28;21131;-73
2022/10/13 00:29:38;;;;;;;5.18;4.35;;;15.40;99.90;;;;;;4970643;28;20548;-73
2022/10/13 00:32:05;;;;;;;4.93;4.53;;;15.40;99.90;;;;;;4970957;28;20288;-73
2022/10/13 00:34:32;;;;;;;4.95;4.55;;;15.40;99.90;;;;;;4967920;28;20241;-73
2022/10/13 00:37:00;;;;;;;6.28;4.93;;;15.40;99.90;;;;;;4964972;28;20672;-73
2022/10/13 00:39:27;;;;;;;4.95;4.55;;;15.40;99.90;;;;;;4959063;28;20225;-73
2022/10/13 00:41:54;;;;;;;4.63;4.20;;;15.30;99.90;;;;;;4971270;28;20204;-73
2022/10/13 00:44:59;;;;;;;4.75;4.35;;;15.30;99.90;;;;;;4970052;28;20210;-73
2022/10/13 00:47:28;;;;;;;5.70;4.70;;;15.30;99.90;;;;;;4970964;28;20214;-74
2022/10/13 00:49:56;;;;;;;5.15;4.47;;;15.30;99.90;;;;;;4959579;28;20230;-74
2022/10/13 00:52:26;;;;;;;4.63;4.22;;;15.20;99.90;;;;;;4974018;28;20194;-74
2022/10/13 00:54:55;;;;;;;4.43;4.03;;;15.20;99.90;;;;;;4970132;28;20217;-74
2022/10/13 00:57:23;;;;;;;5.05;4.65;;;15.20;99.90;;;;;;4974433;28;20202;-74
2022/10/13 00:59:51;;;;;;;4.53;4.07;;;15.10;99.90;;;;;;4975300;28;20707;-74
2022/10/13 01:02:20;;;;;;;5.30;4.47;;;15.10;99.90;;;;;;4970451;28;20727;-74
2022/10/13 01:04:48;;;;;;;4.93;4.40;;;15.10;99.90;;;;;;4974947;28;20699;-74
2022/10/13 01:07:17;;;;;;;4.90;4.43;;;15.10;99.90;;;;;;4955712;28;20228;-74
2022/10/13 01:09:44;;;;;;;4.80;4.40;;;15.10;99.90;;;;;;4964391;28;20328;-74
2022/10/13 01:12:26;;;;;;;5.55;4.30;;;15.10;99.90;;;;;;4970885;28;20617;-74
2022/10/13 01:15:01;;;;;;;5.10;4.70;;;15.10;99.90;;;;;;4951875;28;20753;-74
2022/10/13 01:17:36;;;;;;;4.47;3.90;;;15.10;99.90;;;;;;4967381;28;20193;-74
2022/10/13 01:20:30;;;;;;;4.90;4.50;;;15.10;99.90;;;;;;4968286;28;20741;-74
2022/10/13 01:23:18;;;;;;;4.90;4.50;;;15.10;99.90;;;;;;4966832;28;20195;-74
2022/10/13 01:26:17;;;;;;;5.20;4.75;;;15.10;99.90;;;;;;4966512;28;20237;-74
2022/10/13 01:29:05;;;;;;;4.63;4.22;;;15.00;99.90;;;;;;4969549;28;20201;-74
2022/10/13 01:31:42;;;;;;;4.28;3.85;;;15.00;99.90;;;;;;4954874;28;20753;-74
2022/10/13 01:34:15;;;;;;;4.65;3.85;;;15.00;99.90;;;;;;4974441;28;20204;-74
2022/10/13 01:36:50;;;;;;;4.45;4.10;;;15.00;99.90;;;;;;4967165;28;20222;-74
2022/10/13 01:39:26;;;;;;;4.25;3.85;;;15.00;99.90;;;;;;4972698;28;20239;-74
2022/10/13 01:41:58;;;;;;;4.53;4.18;;;15.00;99.90;;;;;;4968023;28;20217;-74
2022/10/13 01:44:32;;;;;;;4.50;4.10;;;15.00;99.90;;;;;;4967805;28;20202;-74
2022/10/13 01:47:02;;;;;;;5.30;4.20;;;15.10;99.90;;;;;;4960262;28;20201;-74
2022/10/13 01:49:34;;;;;;;5.07;4.65;;;15.10;99.90;;;;;;4969513;28;20214;-74
2022/10/13 01:52:04;;;;;;;4.63;4.22;;;15.10;99.90;;;;;;4973106;28;20197;-74
2022/10/13 01:54:32;;;;;;;4.07;3.70;;;15.10;99.90;;;;;;4965381;28;20576;-73
2022/10/13 01:57:00;;;;;;;4.53;4.03;;;15.10;99.90;;;;;;4973699;28;20212;-73
2022/10/13 01:59:29;;;;;;;4.22;3.88;;;15.10;99.90;;;;;;4972115;28;20218;-73
2022/10/13 02:02:07;;;;;;;4.63;4.22;;;15.10;99.90;;;;;;4968753;28;20194;-74
2022/10/13 02:04:49;;;;;;;5.03;4.00;;;15.10;99.90;;;;;;4969530;28;20323;-73
2022/10/13 02:07:21;;;;;;;5.43;4.95;;;15.10;99.90;;;;;;4966565;28;20201;-73
2022/10/13 02:09:57;;;;;;;4.97;4.57;;;15.10;99.90;;;;;;4970684;28;20718;-74
2022/10/13 02:12:30;;;;;;;4.93;4.50;;;15.00;99.90;;;;;;4942194;28;20202;-74
2022/10/13 02:14:59;;;;;;;5.07;4.57;;;15.00;99.90;;;;;;4973643;28;20221;-74
2022/10/13 02:17:29;;;;;;;4.35;3.97;;;15.00;99.90;;;;;;4955102;28;20212;-74
2022/10/13 02:19:57;;;;;;;5.03;4.45;;;15.00;99.90;;;;;;4966167;28;20229;-74
2022/10/13 02:22:31;;;;;;;5.10;4.40;;;14.90;99.90;;;;;;4969863;28;20197;-74
2022/10/13 02:24:58;;;;;;;5.18;4.78;;;14.90;99.90;;;;;;4949621;28;20304;-74
2022/10/13 02:27:26;;;;;;;5.13;4.63;;;14.90;99.90;;;;;;4954268;28;20288;-73
2022/10/13 02:29:55;;;;;;;6.68;4.53;;;14.90;99.90;;;;;;4970068;28;20233;-73
2022/10/13 02:32:23;;;;;;;5.28;4.78;;;14.90;99.90;;;;;;4968626;28;20224;-73
2022/10/13 02:34:52;;;;;;;4.18;3.88;;;14.90;99.90;;;;;;4950592;28;20240;-74
2022/10/13 02:37:19;;;;;;;4.70;4.30;;;14.90;99.90;;;;;;4970714;28;20751;-74
2022/10/13 02:39:46;;;;;;;5.30;4.80;;;14.90;99.90;;;;;;4968733;28;20229;-74
2022/10/13 02:42:14;;;;;;;4.80;4.40;;;14.80;99.90;;;;;;4969090;28;20198;-73
2022/10/13 02:44:41;;;;;;;5.38;4.80;;;14.80;99.90;;;;;;4973823;28;20216;-73
2022/10/13 02:47:08;;;;;;;5.28;4.78;;;14.80;99.90;;;;;;4968782;28;20205;-73
2022/10/13 02:49:35;;;;;;;4.93;4.53;;;14.70;99.90;;;;;;4967541;28;20240;-73
2022/10/13 02:52:04;;;;;;;4.90;4.50;;;14.70;99.90;;;;;;4972604;28;20193;-73
2022/10/13 02:54:32;;;;;;;4.80;4.40;;;14.60;99.90;;;;;;4969120;28;20260;-75
2022/10/13 02:56:59;;;;;;;4.38;3.97;;;14.60;99.90;;;;;;4968845;28;20217;-75
2022/10/13 02:59:27;;;;;;;5.57;5.07;;;14.60;99.90;;;;;;4959809;28;20253;-75
2022/10/13 03:01:54;;;;;;;5.07;4.68;;;14.60;99.90;;;;;;4968489;28;20229;-75
2022/10/13 03:04:22;;;;;;;4.50;4.18;;;14.60;99.90;;;;;;4964622;28;20252;-75
2022/10/13 03:06:49;;;;;;;5.00;4.60;;;14.50;99.90;;;;;;4967069;28;20646;-75
2022/10/13 03:09:18;;;;;;;5.85;5.05;;;14.50;99.90;;;;;;4970169;28;20305;-75
2022/10/13 03:11:45;;;;;;;5.00;4.55;;;14.50;99.90;;;;;;4966452;28;20236;-73
2022/10/13 03:14:12;;;;;;;4.68;4.25;;;14.50;99.90;;;;;;4969876;28;20197;-73
2022/10/13 03:16:40;;;;;;;5.65;5.15;;;14.50;99.90;;;;;;4957646;28;20226;-73
2022/10/13 03:19:08;;;;;;;4.82;4.43;;;14.50;99.90;;;;;;4957444;28;20221;-73
2022/10/13 03:21:37;;;;;;;4.82;4.43;;;14.40;99.90;;;;;;4972979;28;20883;-73
2022/10/13 03:24:05;;;;;;;5.40;4.75;;;14.40;99.90;;;;;;4971287;28;20201;-73
2022/10/13 03:26:35;;;;;;;5.38;4.88;;;14.40;99.90;;;;;;4973589;28;20256;-73
2022/10/13 03:29:02;;;;;;;4.50;4.10;;;14.40;99.90;;;;;;4969343;28;20221;-73
2022/10/13 03:31:29;;;;;;;5.05;4.65;;;14.40;99.90;;;;;;4971604;28;20221;-74
2022/10/13 03:33:57;;;;;;;4.95;4.55;;;14.40;99.90;;;;;;4971522;28;20252;-73
2022/10/13 03:36:24;;;;;;;4.57;4.18;;;14.40;99.90;;;;;;4971779;28;20597;-73
2022/10/13 03:38:53;;;;;;;5.60;4.93;;;14.30;99.90;;;;;;4974219;28;20206;-73
2022/10/13 03:41:21;;;;;;;4.10;3.80;;;14.30;99.90;;;;;;4975179;28;20265;-73
2022/10/13 03:43:50;;;;;;;5.90;4.90;;;14.30;99.90;;;;;;4973016;28;20620;-74
2022/10/13 03:46:18;;;;;;;4.95;4.43;;;14.30;99.90;;;;;;4956074;28;20295;-73
2022/10/13 03:48:45;;;;;;;4.63;4.22;;;14.30;99.90;;;;;;4959185;28;20249;-73
2022/10/13 03:51:14;;;;;;;6.25;4.82;;;14.30;99.90;;;;;;4970364;28;20683;-73
2022/10/13 03:53:42;;;;;;;4.93;4.43;;;14.20;99.90;;;;;;4972486;28;20914;-73
2022/10/13 03:56:14;;;;;;;5.43;4.93;;;14.20;99.90;;;;;;4971139;28;20218;-73
2022/10/13 03:58:41;;;;;;;7.35;4.78;;;14.20;99.90;;;;;;4973187;28;20193;-73
2022/10/13 04:01:13;;;;;;;5.55;4.80;;;14.20;99.90;;;;;;4960350;28;20221;-73
2022/10/13 04:03:40;;;;;;;5.35;4.85;;;14.20;99.90;;;;;;4972034;28;20193;-73
2022/10/13 04:06:07;;;;;;;5.30;4.75;;;14.10;99.90;;;;;;4969837;28;20232;-73
2022/10/13 04:08:35;;;;;;;4.82;4.43;;;14.10;99.90;;;;;;4970402;28;20224;-73
2022/10/13 04:11:04;;;;;;;5.28;4.78;;;14.10;99.90;;;;;;4970751;28;20456;-73
2022/10/13 04:13:31;;;;;;;5.47;4.97;;;14.10;99.90;;;;;;4971565;28;20198;-73
2022/10/13 04:16:02;;;;;;;5.15;4.63;;;14.10;99.90;;;;;;4969293;28;20217;-74
2022/10/13 04:18:31;;;;;;;5.13;4.40;;;14.10;99.90;;;;;;4965407;28;20225;-73
2022/10/13 04:20:58;;;;;;;5.70;5.05;;;14.00;99.90;;;;;;4971697;28;20228;-73
2022/10/13 04:23:26;;;;;;;5.28;4.65;;;14.00;99.90;;;;;;4971822;28;20210;-73
2022/10/13 04:25:53;;;;;;;5.20;4.78;;;14.00;99.90;;;;;;4970077;28;20228;-73
2022/10/13 04:28:20;;;;;;;5.25;4.75;;;14.00;99.90;;;;;;4970919;28;20264;-73
2022/10/13 04:30:48;;;;;;;5.90;5.30;;;14.00;99.90;;;;;;4970326;28;20221;-73
2022/10/13 04:33:16;;;;;;;6.07;5.45;;;14.00;99.90;;;;;;4968165;28;20840;-73
2022/10/13 04:35:45;;;;;;;5.70;4.70;;;14.00;99.90;;;;;;4974129;28;20946;-73
2022/10/13 04:38:12;;;;;;;5.85;5.25;;;13.90;99.90;;;;;;4957634;28;20202;-73
2022/10/13 04:40:40;;;;;;;5.15;4.63;;;13.90;99.90;;;;;;4973212;28;20649;-72
2022/10/13 04:43:07;;;;;;;5.13;4.60;;;13.90;99.90;;;;;;4968299;28;20201;-73
2022/10/13 04:45:34;;;;;;;5.15;4.75;;;13.90;99.90;;;;;;4970576;28;20551;-72
2022/10/13 04:48:02;;;;;;;4.80;4.30;;;13.90;99.90;;;;;;4974276;28;20212;-72
2022/10/13 04:50:30;;;;;;;5.03;4.45;;;13.90;99.90;;;;;;4972155;28;20609;-73
2022/10/13 04:52:59;;;;;;;6.00;4.50;;;13.90;99.90;;;;;;4970556;28;20205;-72
2022/10/13 04:55:26;;;;;;;4.78;4.32;;;13.90;99.90;;;;;;4969258;28;20217;-73
2022/10/13 04:57:53;;;;;;;4.50;4.10;;;13.90;99.90;;;;;;4951982;28;20619;-73
2022/10/13 05:00:21;;;;;;;4.75;4.32;;;13.90;99.90;;;;;;4956011;28;20221;-73
2022/10/13 05:02:48;;;;;;;5.43;4.22;;;13.90;99.90;;;;;;4971444;28;20197;-73
2022/10/13 05:05:17;;;;;;;4.43;4.10;;;14.00;99.90;;;;;;4970134;28;20225;-73
2022/10/13 05:07:45;;;;;;;4.78;4.38;;;14.00;99.90;;;;;;4975907;28;20950;-72
2022/10/13 05:10:13;;;;;;;4.88;4.47;;;14.00;99.90;;;;;;4970111;28;20797;-73
2022/10/13 05:12:41;;;;;;;4.90;4.40;;;14.00;99.90;;;;;;4971413;28;20198;-73
2022/10/13 05:15:09;;;;;;;6.32;4.70;;;14.00;99.90;;;;;;4968557;28;20580;-73
2022/10/13 05:17:36;;;;;;;5.05;4.25;;;14.00;99.90;;;;;;4972381;28;20201;-73
2022/10/13 05:20:04;;;;;;;4.10;3.80;;;14.00;99.90;;;;;;4951595;28;20241;-73
2022/10/13 05:22:31;;;;;;;4.78;4.00;;;14.10;99.90;;;;;;4973900;28;20232;-73
2022/10/13 05:24:59;;;;;;;4.30;3.90;;;14.10;99.90;;;;;;4968537;28;20280;-73
2022/10/13 05:27:27;;;;;;;4.38;3.60;;;14.10;99.90;;;;;;4969100;28;20206;-73
2022/10/13 05:29:55;;;;;;;4.40;3.38;;;14.10;99.90;;;;;;4966822;28;20229;-73
2022/10/13 05:32:22;;;;;;;3.47;3.28;;;14.20;99.90;;;;;;4954965;28;20200;-73
2022/10/13 05:34:49;;;;;;;3.78;3.38;;;14.20;99.90;;;;;;4967985;28;20699;-73
2022/10/13 05:37:17;;;;;;;4.47;4.07;;;14.20;99.90;;;;;;4968736;28;20189;-73
2022/10/13 05:39:44;;;;;;;4.25;3.75;;;14.20;99.90;;;;;;4967144;28;20246;-74
2022/10/13 05:42:12;;;;;;;4.45;3.95;;;14.10;99.90;;;;;;4971672;28;20203;-74
2022/10/13 05:44:40;;;;;;;3.90;3.60;;;14.20;99.90;;;;;;4966949;28;20260;-75
2022/10/13 05:47:07;;;;;;;4.22;3.92;;;14.20;99.90;;;;;;4972057;28;20595;-75
2022/10/13 05:49:38;;;;;;;4.68;4.13;;;14.20;99.90;;;;;;4969693;28;20217;-75
2022/10/13 05:52:10;;;;;;;4.40;4.10;;;14.20;99.90;;;;;;4968940;28;20201;-75
2022/10/13 05:54:42;;;;;;;4.13;3.80;;;14.20;99.90;;;;;;4965011;28;20575;-73
2022/10/13 05:57:14;;;;;;;4.05;3.75;;;14.30;99.90;;;;;;4970374;28;20214;-74
2022/10/13 05:59:49;;;;;;;5.60;4.60;;;14.20;99.90;;;;;;4973581;28;20271;-75
2022/10/13 06:02:20;;;;;;;4.93;4.25;;;14.20;99.90;;;;;;4955947;28;20201;-74
2022/10/13 06:04:52;;;;;;;6.00;4.13;;;14.20;99.90;;;;;;4966472;28;20221;-74
2022/10/13 06:07:19;;;;;;;4.13;3.72;;;14.20;99.90;;;;;;4970872;28;20218;-74
2022/10/13 06:09:47;;;;;;;5.15;4.00;;;14.20;99.90;;;;;;4956587;28;20221;-74
2022/10/13 06:12:14;;;;;;;4.82;4.43;;;14.20;99.90;;;;;;4969302;28;20208;-73
2022/10/13 06:14:43;;;;;;;3.90;3.60;;;14.30;99.90;;;;;;4949235;28;20202;-75
2022/10/13 06:17:10;;;;;;;4.38;3.97;;;14.30;99.90;;;;;;4963866;28;20243;-75
2022/10/13 06:19:38;;;;;;;4.00;3.60;;;14.30;99.90;;;;;;4969979;28;20225;-76
2022/10/13 06:22:05;;;;;;;4.95;3.92;;;14.40;99.90;;;;;;4951387;28;20615;-74
2022/10/13 06:24:33;;;;;;;4.60;4.18;;;14.40;99.90;;;;;;4960834;28;20194;-75
2022/10/13 06:27:00;;;;;;;4.10;3.80;;;14.50;99.90;;;;;;4966704;28;20220;-74
2022/10/13 06:29:27;;;;;;;4.47;3.90;;;14.50;99.90;;;;;;4954261;28;20264;-75
2022/10/13 06:31:56;;;;;;;4.53;4.15;;;14.50;99.90;;;;;;4939694;28;20220;-75
2022/10/13 06:34:24;;;;;;;4.05;3.75;;;14.50;99.90;;;;;;4974286;28;20205;-75
2022/10/13 06:36:51;;;;;;;4.10;3.70;;;14.50;99.90;;;;;;4966564;28;20244;-75
2022/10/13 06:39:20;;;;;;;5.30;3.88;;;14.60;99.90;;;;;;4968565;28;20645;-74
2022/10/13 06:41:47;;;;;;;4.30;3.88;;;14.60;99.90;;;;;;4963750;28;20232;-74
2022/10/13 06:44:14;;;;;;;4.50;4.07;;;14.60;99.90;;;;;;4966360;28;20202;-75
2022/10/13 06:46:42;;;;;;;3.80;3.50;;;14.70;99.90;;;;;;4965697;28;20225;-74
2022/10/13 06:49:11;;;;;;;4.20;3.90;;;14.70;99.90;;;;;;4969713;28;20715;-74
2022/10/13 06:51:39;;;;;;;4.85;3.92;;;14.70;99.90;;;;;;4973828;28;20227;-74
2022/10/13 06:54:06;;;;;;;5.20;4.55;;;14.80;99.90;;;;;;4966528;28;20201;-74
2022/10/13 06:56:34;;;;;;;5.18;4.63;;;14.90;99.90;;;;;;4951149;28;20246;-74
2022/10/13 06:59:01;;;;;;;5.40;4.90;;;15.10;99.90;;;;;;4949527;28;20830;-75
2022/10/13 07:01:28;;;;;;;5.07;4.68;;;15.20;99.90;;;;;;4962383;28;20592;-74
2022/10/13 07:03:56;;;;;;;4.93;4.53;;;15.20;99.90;;;;;;4953254;28;20671;-75
2022/10/13 07:06:25;;;;;;;4.80;4.40;;;15.20;99.90;;;;;;4965652;28;20229;-75
2022/10/13 07:08:52;;;;;;;5.22;4.72;;;15.20;99.90;;;;;;4967468;28;20201;-75
2022/10/13 07:11:19;;;;;;;5.50;5.00;;;15.30;99.90;;;;;;4949933;28;20249;-75
2022/10/13 07:13:47;;;;;;;5.80;4.75;;;15.40;99.90;;;;;;4965990;28;20201;-74
2022/10/13 07:16:15;;;;;;;5.75;5.18;;;15.70;99.90;;;;;;4966064;28;20225;-75
2022/10/13 07:18:42;;;;;;;6.45;5.00;;;16.40;99.90;;;;;;4965941;28;20237;-75
2022/10/13 07:21:10;;;;;;;5.55;4.97;;;17.30;99.90;;;;;;4964499;28;20228;-74
2022/10/13 07:23:39;;;;;;;6.30;4.95;;;18.10;99.90;;;;;;4967813;28;20193;-74
2022/10/13 07:26:08;;;;;;;9.38;5.22;;;18.70;99.90;;;;;;4962507;28;20588;-75
2022/10/13 07:28:35;;;;;;;5.18;4.68;;;19.30;99.90;;;;;;4955269;28;20209;-75
2022/10/13 07:31:09;;;;;;;5.38;4.75;;;19.80;99.90;;;;;;4953236;28;20222;-75
2022/10/13 07:33:37;;;;;;;4.80;4.40;;;20.30;99.90;;;;;;4966380;28;20197;-75
2022/10/13 07:36:05;;;;;;;8.60;4.93;;;20.80;99.90;;;;;;4962008;28;20236;-75
2022/10/13 07:38:33;;;;;;;6.38;4.65;;;20.90;99.90;;;;;;4968444;28;20595;-75
2022/10/13 07:41:03;;;;;;;5.25;4.75;;;21.00;99.90;;;;;;4962408;28;20699;-75
2022/10/13 07:43:30;;;;;;;5.72;4.90;;;20.90;99.90;;;;;;4967635;28;20209;-75
2022/10/13 07:45:58;;;;;;;4.82;4.43;;;20.50;99.90;;;;;;4949457;28;20230;-75
2022/10/13 07:48:26;;;;;;;5.43;4.93;;;20.50;99.90;;;;;;4951473;28;20652;-76
2022/10/13 07:50:53;;;;;;;6.70;5.07;;;20.70;99.90;;;;;;4950049;28;21007;-75
2022/10/13 07:53:21;;;;;;;5.95;5.35;;;20.80;99.90;;;;;;4969594;28;20201;-76
2022/10/13 07:55:48;;;;;;;7.57;5.40;;;20.90;99.90;;;;;;4974795;28;20232;-75
2022/10/13 07:58:17;;;;;;;5.88;5.28;;;21.00;99.90;;;;;;4968839;28;20205;-75
2022/10/13 08:00:45;;;;;;;5.05;4.55;;;21.20;99.90;;;;;;4963054;28;20689;-75
2022/10/13 08:03:12;;;;;;;5.30;4.90;;;21.50;99.90;;;;;;4975419;28;20202;-75
2022/10/13 08:05:40;;;;;;;6.05;5.28;;;21.80;99.90;;;;;;4943910;28;20232;-75
2022/10/13 08:08:07;;;;;;;6.00;4.82;;;22.00;99.90;;;;;;4970874;28;20304;-76
2022/10/13 08:10:34;;;;;;;5.55;4.60;;;22.20;99.90;;;;;;4975200;28;20228;-76
2022/10/13 08:13:01;;;;;;;7.90;4.50;;;22.20;99.90;;;;;;4973719;28;20749;-75
2022/10/13 08:15:30;;;;;;;6.75;4.95;;;22.10;99.90;;;;;;4970592;28;20228;-75
2022/10/13 08:17:57;;;;;;;7.38;5.05;;;21.90;99.90;;;;;;4968479;28;20205;-76
2022/10/13 08:20:25;;;;;;;5.32;4.68;;;22.10;99.90;;;;;;4967124;28;20225;-76
2022/10/13 08:22:52;;;;;;;6.90;5.28;;;22.00;99.90;;;;;;4968424;28;20212;-76
2022/10/13 08:25:19;;;;;;;5.65;4.80;;;22.10;99.90;;;;;;4964347;28;20234;-76
2022/10/13 08:27:46;;;;;;;6.22;5.40;;;22.30;99.90;;;;;;4965809;28;20703;-76
2022/10/13 08:30:14;;;;;;;7.68;5.10;;;22.40;99.90;;;;;;4962340;28;20238;-75
2022/10/13 08:32:43;;;;;;;5.97;4.97;;;22.40;99.90;;;;;;4955309;28;20198;-76
2022/10/13 08:35:10;;;;;;;8.52;4.88;;;22.50;99.90;;;;;;4967702;28;20228;-76
2022/10/13 08:37:37;;;;;;;5.40;4.47;;;22.60;99.90;;;;;;4964021;28;20206;-74
2022/10/13 08:40:06;;;;;;;8.70;4.88;;;22.80;99.90;;;;;;4962768;28;20271;-74
2022/10/13 08:42:34;;;;;;;8.32;4.65;;;22.70;99.90;;;;;;4940902;28;20619;-75
2022/10/13 08:45:04;;;;;;;6.22;4.30;;;22.70;99.90;;;;;;4967795;28;20703;-74
2022/10/13 08:47:40;;;;;;;5.50;4.03;;;22.80;99.90;;;;;;4953367;28;20983;-75
2022/10/13 08:50:13;;;;;;;6.15;4.38;;;22.70;99.90;;;;;;4967500;28;20244;-72
2022/10/13 08:52:47;;;;;;;5.78;4.88;;;22.60;99.90;;;;;;4966081;28;20691;-73
2022/10/13 08:55:22;;;;;;;5.13;4.45;;;22.50;99.90;;;;;;4951696;28;20356;-73
2022/10/13 08:57:50;;;;;;;4.60;4.07;;;22.40;99.90;;;;;;4961904;28;20200;-73
2022/10/13 09:00:18;;;;;;;5.95;5.00;;;22.30;99.90;;;;;;4966132;28;20221;-74
2022/10/13 09:02:46;;;;;;;4.93;4.25;;;22.50;99.90;;;;;;4966191;28;20200;-74
2022/10/13 09:05:25;;;;;;;4.35;3.95;;;22.50;99.90;;;;;;4962414;28;20229;-75
2022/10/13 09:07:55;;;;;;;6.47;4.25;;;22.80;99.90;;;;;;4968656;28;20336;-76
2022/10/13 09:10:22;;;;;;;4.65;3.97;;;23.00;99.90;;;;;;4966227;28;20237;-75
2022/10/13 09:12:50;;;;;;;4.97;4.22;;;22.90;99.90;;;;;;4957244;28;20201;-75
2022/10/13 09:15:18;;;;;;;4.35;3.90;;;23.10;99.90;;;;;;4964131;28;20248;-74
2022/10/13 09:18:06;;;;;;;3.83;3.53;;;23.30;99.90;;;;;;4968216;28;20202;-75
2022/10/13 09:20:35;;;;;;;5.65;3.92;;;23.70;99.90;;;;;;4963022;28;20724;-76
2022/10/13 09:23:05;;;;;;;4.18;3.70;;;23.70;99.90;;;;;;4967651;28;20660;-75
2022/10/13 09:25:40;;;;;;;5.43;4.00;;;23.40;99.90;;;;;;4962642;28;20231;-75
2022/10/13 09:28:14;;;;;;;4.75;3.85;;;23.20;99.90;;;;;;4962923;28;20929;-75
2022/10/13 09:30:45;;;;;;;5.38;3.60;;;23.40;99.90;;;;;;4966079;28;20818;-75
2022/10/13 09:33:22;;;;;;;6.35;4.30;;;23.30;99.90;;;;;;4944434;28;20205;-75
2022/10/13 09:36:11;;;;;;;6.50;4.60;;;23.00;99.90;;;;;;4936196;28;20228;-75
2022/10/13 09:38:41;;;;;;;5.03;4.05;;;22.60;99.90;;;;;;4966155;28;20198;-74
2022/10/13 09:41:15;;;;;;;5.15;4.18;;;22.50;99.90;;;;;;4968644;28;20221;-75
2022/10/13 09:43:56;;;;;;;4.82;4.13;;;22.40;99.90;;;;;;4969978;28;20200;-74
2022/10/13 09:46:26;;;;;;;4.70;3.97;;;22.70;99.90;;;;;;4964435;28;20271;-74
2022/10/13 09:48:55;;;;;;;4.00;3.60;;;22.70;99.90;;;;;;4966731;28;20206;-74
2022/10/13 09:51:40;;;;;;;6.20;3.85;;;22.40;99.90;;;;;;4965309;28;20221;-76
2022/10/13 09:54:26;;;;;;;4.53;3.58;;;22.50;99.90;;;;;;4967378;28;20598;-75
2022/10/13 09:56:58;;;;;;;4.95;4.00;;;22.80;99.90;;;;;;4972907;28;20643;-75
2022/10/13 09:59:32;;;;;;;6.97;3.90;;;22.90;99.90;;;;;;4962252;28;20217;-77
2022/10/13 10:02:01;;;;;;;7.53;3.70;;;22.90;99.90;;;;;;4967231;28;20205;-75
2022/10/13 10:04:36;;;;;;;9.48;4.60;;;23.10;99.90;;;;;;4947872;28;20209;-73
2022/10/13 10:07:12;;;;;;;4.57;3.90;;;23.40;99.90;;;;;;4960767;28;20269;-73
2022/10/13 10:09:46;;;;;;;4.88;4.00;;;23.60;99.90;;;;;;4960947;28;20401;-73
2022/10/13 10:12:18;;;;;;;4.63;4.10;;;23.30;99.90;;;;;;4963346;28;20198;-73
2022/10/13 10:14:47;;;;;;;9.55;3.85;;;23.20;99.90;;;;;;4960731;28;20233;-73
2022/10/13 10:17:21;;;;;;;5.68;4.20;;;23.20;99.90;;;;;;4962608;28;20208;-73
2022/10/13 10:20:00;;;;;;;5.30;4.43;;;23.20;99.90;;;;;;4948922;28;20320;-74
2022/10/13 10:22:37;;;;;;;5.32;4.25;;;23.10;99.90;;;;;;4961656;28;20573;-73
2022/10/13 10:25:19;;;;;;;4.53;3.92;;;22.90;99.90;;;;;;4960780;28;20231;-74
2022/10/13 10:27:53;;;;;;;5.88;4.35;;;23.20;99.90;;;;;;4953880;28;20245;-73
2022/10/13 10:30:21;;;;;;;6.38;4.40;;;23.40;99.90;;;;;;4969643;28;20240;-74
2022/10/13 10:32:57;;;;;;;5.32;4.07;;;23.60;99.90;;;;;;4966272;28;20212;-73
2022/10/13 10:35:38;;;;;;;4.07;3.67;;;23.70;99.90;;;;;;4966828;28;20220;-74
2022/10/13 10:38:20;;;;;;;4.32;3.90;;;23.50;99.90;;;;;;4966762;28;20201;-73
2022/10/13 10:40:53;;;;;;;5.53;4.00;;;23.70;99.90;;;;;;4940961;28;20221;-71
2022/10/13 10:43:44;;;;;;;4.63;4.00;;;23.70;99.90;;;;;;4965923;28;20296;-73
2022/10/13 10:46:16;;;;;;;7.03;3.67;;;23.60;99.90;;;;;;4943065;28;20674;-73
2022/10/13 10:48:46;;;;;;;3.72;3.40;;;23.70;99.90;;;;;;4964971;28;20622;-72
2022/10/13 10:51:15;;;;;;;5.50;3.83;;;23.80;99.90;;;;;;4966944;28;20213;-72
2022/10/13 10:53:57;;;;;;;6.20;3.70;;;23.80;99.90;;;;;;4968697;28;20328;-72
2022/10/13 10:56:32;;;;;;;5.40;3.60;;;23.90;99.90;;;;;;4944186;28;20252;-72
2022/10/13 10:59:14;;;;;;;5.03;3.75;;;23.70;99.90;;;;;;4963834;28;20197;-72
2022/10/13 11:01:46;;;;;;;4.00;3.70;;;23.50;99.90;;;;;;4944719;28;20293;-72
2022/10/13 11:04:39;;;;;;;5.00;3.80;;;23.70;99.90;;;;;;4963888;28;20201;-73
2022/10/13 11:07:11;;;;;;;5.40;3.60;;;24.00;99.90;;;;;;4960923;28;20236;-73
2022/10/13 11:10:04;;;;;;;4.15;3.75;;;23.70;99.90;;;;;;4961961;28;20217;-75
2022/10/13 11:13:25;;;;;;;4.28;3.88;;;23.40;99.90;;;;;;4943460;28;20198;-72
2022/10/13 11:15:54;;;;;;;5.93;3.80;;;23.40;99.90;;;;;;4924352;29;20238;-72
2022/10/13 11:18:58;;;;;;;3.83;3.50;;;23.60;99.90;;;;;;4964199;28;20201;-73
2022/10/13 11:21:25;;;;;;;4.38;3.60;;;23.80;99.90;;;;;;4962968;28;20749;-72
2022/10/13 11:23:52;;;;;;;5.68;3.72;;;24.00;99.90;;;;;;4966767;28;20209;-72
2022/10/13 11:26:42;;;;;;;5.25;3.83;;;24.00;99.90;;;;;;4967952;28;20229;-72
2022/10/13 11:29:19;;;;;;;4.20;3.70;;;23.90;99.90;;;;;;4967582;28;20230;-71
2022/10/13 11:31:53;;;;;;;4.95;3.58;;;24.00;99.90;;;;;;4947339;28;20253;-73
2022/10/13 11:34:31;;;;;;;5.88;4.15;;;24.10;99.90;;;;;;4970298;28;20292;-73
2022/10/13 11:37:01;;;;;;;4.13;3.72;;;24.00;99.90;;;;;;4953536;28;20287;-73
2022/10/13 11:40:00;;;;;;;5.32;4.00;;;23.90;99.90;;;;;;4972209;28;20707;-74
2022/10/13 11:43:05;;;;;;;3.92;3.63;;;23.70;99.90;;;;;;4975024;28;20224;-73
2022/10/13 11:46:15;;;;;;;4.60;3.80;;;23.40;99.90;;;;;;4967536;28;20228;-73
2022/10/13 11:49:32;;;;;;;4.75;3.20;;;23.10;99.90;;;;;;4968725;28;20279;-73
2022/10/13 11:52:35;;;;;;;3.47;3.15;;;23.10;99.90;;;;;;4962916;28;20231;-73
2022/10/13 11:55:05;;;;;;;3.30;2.90;;;23.00;99.90;;;;;;4960472;28;20232;-73
2022/10/13 11:57:32;;;;;;;3.78;3.40;;;22.80;99.90;;;;;;4955420;28;20220;-73
2022/10/13 12:00:01;;;;;;;4.82;3.42;;;22.80;99.90;;;;;;4976040;28;20232;-73
2022/10/13 12:02:29;;;;;;;3.85;3.55;;;22.80;99.90;;;;;;4956076;28;20253;-73
2022/10/13 12:05:05;;;;;;;4.65;3.80;;;22.90;99.90;;;;;;4972263;28;20233;-73
2022/10/13 12:07:35;;;;;;;5.50;3.72;;;22.70;99.90;;;;;;4956051;28;20698;-73
2022/10/13 12:10:07;;;;;;;3.50;3.20;;;22.70;99.90;;;;;;4967108;28;20225;-73
2022/10/13 12:12:35;;;;;;;5.72;3.97;;;23.00;99.90;;;;;;4972685;28;20708;-73
2022/10/13 12:15:34;;;;;;;5.70;4.63;;;23.30;99.90;;;;;;4975496;28;20729;-74
2022/10/13 12:18:01;;;;;;;6.40;4.70;;;23.50;99.90;;;;;;4970810;28;20228;-73
2022/10/13 12:20:31;;;;;;;5.13;4.65;;;23.60;99.90;;;;;;4974331;28;20228;-73
2022/10/13 12:22:58;;;;;;;6.13;4.30;;;23.30;99.90;;;;;;4981472;28;20197;-73
2022/10/13 12:25:28;;;;;;;4.97;4.18;;;23.10;99.90;;;;;;4952333;28;20225;-73
2022/10/13 12:27:58;;;;;;;5.38;4.72;;;23.00;99.90;;;;;;4953429;28;20978;-73
2022/10/13 12:30:27;;;;;;;7.05;4.75;;;22.80;99.90;;;;;;4944159;28;20238;-74
2022/10/13 12:32:58;;;;;;;7.88;5.20;;;22.60;99.90;;;;;;4946074;28;20198;-73
2022/10/13 12:35:28;;;;;;;5.53;4.03;;;22.40;99.90;;;;;;4953291;28;20222;-73
2022/10/13 12:38:01;;;;;;;4.78;4.32;;;22.30;99.90;;;;;;4948566;28;20194;-73
2022/10/13 12:40:29;;;;;;;4.90;4.22;;;22.30;99.90;;;;;;4948440;28;20624;-73
2022/10/13 12:42:57;;;;;;;4.40;3.85;;;22.00;99.90;;;;;;4948439;28;20236;-74
2022/10/13 12:45:29;;;;;;;5.45;4.70;;;21.90;99.90;;;;;;4950899;28;20711;-74
2022/10/13 12:47:58;;;;;;;7.13;4.30;;;21.70;99.90;;;;;;4949653;28;20210;-73
2022/10/13 12:50:39;;;;;;;6.60;4.40;;;21.60;99.90;;;;;;4948226;28;20718;-73
2022/10/13 12:53:13;;;;;;;4.47;3.85;;;21.50;99.90;;;;;;4948121;28;20202;-73
2022/10/13 12:55:57;;;;;;;5.78;4.28;;;21.40;99.90;;;;;;4953599;28;20279;-73
2022/10/13 12:58:28;;;;;;;4.63;4.22;;;21.40;99.90;;;;;;4947552;28;20226;-73
2022/10/13 13:01:09;;;;;;;5.95;4.32;;;21.40;99.90;;;;;;4952842;28;20229;-74
2022/10/13 13:03:38;;;;;;;4.43;4.03;;;21.50;99.90;;;;;;4949621;28;20202;-73
2022/10/13 13:06:30;;;;;;;7.55;4.80;;;21.70;99.90;;;;;;4946655;28;20222;-73
2022/10/13 13:09:28;;;;;;;5.55;4.40;;;21.90;99.90;;;;;;4949878;28;20226;-73